createdAt,value
2017-08-02T00:00:35.310Z,1004.8
2017-08-02T00:01:36.715Z,1004.9
2017-08-02T00:02:38.139Z,1004.9
2017-08-02T00:03:39.629Z,1005.0
2017-08-02T00:04:41.059Z,1005.0
2017-08-02T00:05:42.461Z,1005.1
2017-08-02T00:06:43.950Z,1005.1
2017-08-02T00:07:45.364Z,1005.1
2017-08-02T00:08:46.781Z,1005.2
2017-08-02T00:09:48.294Z,1005.2
2017-08-02T00:10:49.699Z,1005.3
2017-08-02T00:11:51.135Z,1005.4
2017-08-02T00:12:52.593Z,1005.5
2017-08-02T00:13:53.991Z,1005.5
2017-08-02T00:14:55.394Z,1005.6
2017-08-02T00:15:56.914Z,1005.6
2017-08-02T00:16:58.350Z,1005.7
2017-08-02T00:17:59.754Z,1005.7
2017-08-02T00:19:01.499Z,1005.7
2017-08-02T00:20:02.901Z,1005.8
2017-08-02T00:21:04.307Z,1005.8
2017-08-02T00:22:05.754Z,1005.9
2017-08-02T00:23:07.172Z,1005.9
2017-08-02T00:24:08.621Z,1005.9
2017-08-02T00:25:10.024Z,1006.0
2017-08-02T00:26:11.447Z,1006.0
2017-08-02T00:27:12.962Z,1006.0
2017-08-02T00:28:14.378Z,1006.0
2017-08-02T00:29:15.785Z,1006.0
2017-08-02T00:30:17.287Z,1006.0
2017-08-02T00:31:18.718Z,1006.0
2017-08-02T00:32:20.124Z,1006.1
2017-08-02T00:33:21.623Z,1006.1
2017-08-02T00:34:23.023Z,1006.2
2017-08-02T00:35:24.429Z,1006.2
2017-08-02T00:36:25.976Z,1006.2
2017-08-02T00:37:27.380Z,1006.3
2017-08-02T00:38:29.031Z,1006.3
2017-08-02T00:39:30.435Z,1006.3
2017-08-02T00:40:31.845Z,1006.4
2017-08-02T00:41:33.384Z,1006.3
2017-08-02T00:42:34.794Z,1006.4
2017-08-02T00:43:36.196Z,1006.4
2017-08-02T00:44:37.651Z,1006.4
2017-08-02T00:45:39.095Z,1006.4
2017-08-02T00:46:40.501Z,1006.4
2017-08-02T00:47:42.010Z,1006.5
2017-08-02T00:48:43.407Z,1006.5
2017-08-02T00:49:44.855Z,1006.5
2017-08-02T00:50:46.259Z,1006.6
2017-08-02T00:51:47.680Z,1006.6
2017-08-02T00:52:49.242Z,1006.6
2017-08-02T00:53:50.709Z,1006.6
2017-08-02T00:54:52.137Z,1006.5
2017-08-02T00:55:53.702Z,1006.6
2017-08-02T00:56:55.116Z,1006.6
2017-08-02T00:57:56.584Z,1006.6
2017-08-02T00:58:57.986Z,1006.6
2017-08-02T00:59:59.476Z,1006.6
2017-08-02T01:01:00.881Z,1006.6
2017-08-02T01:02:02.309Z,1006.6
2017-08-02T01:03:03.782Z,1006.6
2017-08-02T01:04:05.196Z,1006.6
2017-08-02T01:05:06.634Z,1006.6
2017-08-02T01:06:08.101Z,1006.6
2017-08-02T01:07:09.545Z,1006.6
2017-08-02T01:08:10.943Z,1006.6
2017-08-02T01:09:12.454Z,1006.6
2017-08-02T01:10:13.858Z,1006.6
2017-08-02T01:11:15.261Z,1006.6
2017-08-02T01:12:16.743Z,1006.6
2017-08-02T01:13:18.150Z,1006.4
2017-08-02T01:14:19.566Z,1006.5
2017-08-02T01:15:21.080Z,1006.5
2017-08-02T01:16:22.507Z,1006.6
2017-08-02T01:17:23.906Z,1006.5
2017-08-02T01:18:25.386Z,1006.6
2017-08-02T01:19:26.792Z,1006.6
2017-08-02T01:20:28.267Z,1006.6
2017-08-02T01:21:29.715Z,1006.6
2017-08-02T01:22:31.250Z,1006.6
2017-08-02T01:23:32.694Z,1006.6
2017-08-02T01:24:34.224Z,1006.7
2017-08-02T01:25:35.626Z,1006.6
2017-08-02T01:26:37.030Z,1006.6
2017-08-02T01:27:38.554Z,1006.7
2017-08-02T01:28:39.989Z,1006.8
2017-08-02T01:29:41.390Z,1006.8
2017-08-02T01:30:43.020Z,1006.8
2017-08-02T01:31:44.419Z,1006.8
2017-08-02T01:32:45.822Z,1006.9
2017-08-02T01:33:47.539Z,1006.9
2017-08-02T01:34:48.943Z,1006.8
2017-08-02T01:35:50.374Z,1006.8
2017-08-02T01:36:51.925Z,1006.8
2017-08-02T01:37:53.343Z,1006.8
2017-08-02T01:38:54.808Z,1006.9
2017-08-02T01:39:56.228Z,1006.9
2017-08-02T01:40:57.700Z,1006.9
2017-08-02T01:41:59.105Z,1006.9
2017-08-02T01:43:00.684Z,1006.9
2017-08-02T01:44:02.092Z,1006.9
2017-08-02T01:45:03.759Z,1007.0
2017-08-02T01:46:05.161Z,1007.0
2017-08-02T01:47:06.845Z,1007.0
2017-08-02T01:48:08.250Z,1007.0
2017-08-02T01:49:09.943Z,1007.0
2017-08-02T01:50:11.386Z,1007.0
2017-08-02T01:51:13.035Z,1007.0
2017-08-02T01:52:14.416Z,1007.1
2017-08-02T01:53:16.107Z,1007.1
2017-08-02T01:54:17.502Z,1007.1
2017-08-02T01:55:19.213Z,1007.1
2017-08-02T01:56:20.616Z,1007.1
2017-08-02T01:57:22.095Z,1007.1
2017-08-02T01:58:23.504Z,1007.1
2017-08-02T01:59:25.153Z,1007.2
2017-08-02T02:00:26.556Z,1007.2
2017-08-02T02:01:28.236Z,1007.2
2017-08-02T02:02:29.673Z,1007.2
2017-08-02T02:03:31.321Z,1007.2
2017-08-02T02:04:32.742Z,1007.2
2017-08-02T02:05:34.409Z,1007.2
2017-08-02T02:06:35.810Z,1007.2
2017-08-02T02:07:37.465Z,1007.2
2017-08-02T02:08:38.871Z,1007.2
2017-08-02T02:09:40.274Z,1007.2
2017-08-02T02:10:41.695Z,1007.2
2017-08-02T02:11:43.102Z,1007.3
2017-08-02T02:12:44.589Z,1007.2
2017-08-02T02:13:45.992Z,1007.3
2017-08-02T02:14:47.393Z,1007.4
2017-08-02T02:15:48.811Z,1007.4
2017-08-02T02:16:50.213Z,1007.4
2017-08-02T02:17:51.632Z,1007.4
2017-08-02T02:18:54.360Z,1007.4
2017-08-02T02:19:55.764Z,1007.5
2017-08-02T02:20:57.446Z,1007.5
2017-08-02T02:21:58.883Z,1007.5
2017-08-02T02:23:00.292Z,1007.5
2017-08-02T02:24:01.999Z,1007.6
2017-08-02T02:25:03.407Z,1007.6
2017-08-02T02:26:04.807Z,1007.7
2017-08-02T02:27:06.498Z,1007.7
2017-08-02T02:28:07.908Z,1007.7
2017-08-02T02:29:09.335Z,1007.8
2017-08-02T02:30:11.024Z,1007.8
2017-08-02T02:31:12.462Z,1007.9
2017-08-02T02:32:13.872Z,1007.9
2017-08-02T02:33:15.564Z,1007.9
2017-08-02T02:34:16.993Z,1007.9
2017-08-02T02:35:18.665Z,1007.9
2017-08-02T02:36:20.060Z,1008.0
2017-08-02T02:37:21.721Z,1008.0
2017-08-02T02:38:23.122Z,1007.9
2017-08-02T02:39:24.567Z,1007.9
2017-08-02T02:40:26.244Z,1008.0
2017-08-02T02:41:27.704Z,1008.0
2017-08-02T02:42:29.104Z,1008.0
2017-08-02T02:43:30.812Z,1008.0
2017-08-02T02:44:32.216Z,1008.0
2017-08-02T02:45:33.616Z,1008.0
2017-08-02T02:46:35.300Z,1008.0
2017-08-02T02:47:36.706Z,1008.0
2017-08-02T02:48:38.134Z,1007.9
2017-08-02T02:49:39.819Z,1008.0
2017-08-02T02:50:41.245Z,1007.9
2017-08-02T02:51:42.647Z,1007.9
2017-08-02T02:52:44.350Z,1007.9
2017-08-02T02:53:45.751Z,1007.8
2017-08-02T02:54:47.470Z,1007.8
2017-08-02T02:55:48.913Z,1007.8
2017-08-02T02:56:50.517Z,1007.7
2017-08-02T02:57:51.920Z,1007.7
2017-08-02T02:58:53.602Z,1007.7
2017-08-02T02:59:55.007Z,1007.7
2017-08-02T03:00:56.771Z,1007.7
2017-08-02T03:01:58.151Z,1007.7
2017-08-02T03:02:59.581Z,1007.7
2017-08-02T03:04:01.215Z,1007.7
2017-08-02T03:05:02.624Z,1007.7
2017-08-02T03:06:04.020Z,1007.6
2017-08-02T03:07:05.539Z,1007.7
2017-08-02T03:08:06.960Z,1007.7
2017-08-02T03:09:08.363Z,1007.7
2017-08-02T03:10:10.065Z,1007.8
2017-08-02T03:11:11.463Z,1007.8
2017-08-02T03:12:12.864Z,1007.9
2017-08-02T03:13:14.382Z,1008.0
2017-08-02T03:14:15.795Z,1008.0
2017-08-02T03:15:17.211Z,1008.0
2017-08-02T03:16:18.910Z,1008.0
2017-08-02T03:17:20.328Z,1008.0
2017-08-02T03:18:21.731Z,1008.1
2017-08-02T03:19:23.435Z,1008.1
2017-08-02T03:20:24.838Z,1008.2
2017-08-02T03:21:26.520Z,1008.2
2017-08-02T03:22:27.954Z,1008.2
2017-08-02T03:23:29.605Z,1008.2
2017-08-02T03:24:31.025Z,1008.3
2017-08-02T03:25:32.897Z,1008.3
2017-08-02T03:26:34.332Z,1008.3
2017-08-02T03:27:35.993Z,1008.4
2017-08-02T03:28:37.391Z,1008.5
2017-08-02T03:29:39.066Z,1008.5
2017-08-02T03:30:40.484Z,1008.6
2017-08-02T03:31:42.153Z,1008.6
2017-08-02T03:32:43.558Z,1008.6
2017-08-02T03:33:45.238Z,1008.5
2017-08-02T03:34:46.656Z,1008.6
2017-08-02T03:35:48.324Z,1008.6
2017-08-02T03:36:49.727Z,1008.6
2017-08-02T03:37:51.408Z,1008.6
2017-08-02T03:38:52.814Z,1008.6
2017-08-02T03:39:54.894Z,1008.6
2017-08-02T03:40:56.303Z,1008.6
2017-08-02T03:41:57.988Z,1008.6
2017-08-02T03:42:59.395Z,1008.6
2017-08-02T03:44:01.075Z,1008.7
2017-08-02T03:45:02.511Z,1008.6
2017-08-02T03:46:04.160Z,1008.7
2017-08-02T03:47:05.563Z,1008.7
2017-08-02T03:48:07.246Z,1008.7
2017-08-02T03:49:08.666Z,1008.6
2017-08-02T03:50:10.088Z,1008.7
2017-08-02T03:51:11.770Z,1008.7
2017-08-02T03:52:13.177Z,1008.7
2017-08-02T03:53:14.609Z,1008.8
2017-08-02T03:54:16.297Z,1008.8
2017-08-02T03:55:17.703Z,1008.8
2017-08-02T03:56:19.106Z,1008.8
2017-08-02T03:57:20.617Z,1008.8
2017-08-02T03:58:22.022Z,1008.8
2017-08-02T03:59:23.428Z,1008.8
2017-08-02T04:00:24.941Z,1008.8
2017-08-02T04:01:26.339Z,1008.9
2017-08-02T04:02:27.742Z,1008.9
2017-08-02T04:03:29.258Z,1009.0
2017-08-02T04:04:30.666Z,1008.9
2017-08-02T04:05:32.068Z,1009.0
2017-08-02T04:06:33.582Z,1009.0
2017-08-02T04:07:37.028Z,1009.1
2017-08-02T04:08:38.399Z,1009.0
2017-08-02T04:09:39.950Z,1009.0
2017-08-02T04:10:41.355Z,1009.1
2017-08-02T04:11:42.760Z,1009.1
2017-08-02T04:12:44.279Z,1009.0
2017-08-02T04:13:45.686Z,1009.1
2017-08-02T04:14:47.095Z,1009.1
2017-08-02T04:15:48.594Z,1009.1
2017-08-02T04:16:50.009Z,1009.1
2017-08-02T04:17:51.677Z,1009.1
2017-08-02T04:18:53.084Z,1009.1
2017-08-02T04:19:54.488Z,1009.2
2017-08-02T04:20:56.000Z,1009.2
2017-08-02T04:21:57.413Z,1009.2
2017-08-02T04:22:58.816Z,1009.3
2017-08-02T04:24:00.254Z,1009.3
2017-08-02T04:25:01.663Z,1009.3
2017-08-02T04:26:03.131Z,1009.4
2017-08-02T04:27:04.562Z,1009.4
2017-08-02T04:28:06.013Z,1009.4
2017-08-02T04:29:07.434Z,1009.4
2017-08-02T04:30:08.893Z,1009.5
2017-08-02T04:31:10.295Z,1009.6
2017-08-02T04:32:11.774Z,1009.7
2017-08-02T04:33:13.179Z,1009.8
2017-08-02T04:34:14.656Z,1009.9
2017-08-02T04:35:16.084Z,1010.0
2017-08-02T04:36:17.538Z,1010.1
2017-08-02T04:37:18.945Z,1010.2
2017-08-02T04:38:20.418Z,1010.3
2017-08-02T04:39:21.825Z,1010.5
2017-08-02T04:40:23.252Z,1010.6
2017-08-02T04:41:24.786Z,1010.6
2017-08-02T04:42:26.189Z,1010.8
2017-08-02T04:43:27.622Z,1010.8
2017-08-02T04:44:29.072Z,1010.9
2017-08-02T04:45:30.476Z,1011.0
2017-08-02T04:46:31.882Z,1011.1
2017-08-02T04:47:33.382Z,1011.1
2017-08-02T04:48:34.784Z,1011.2
2017-08-02T04:49:36.202Z,1011.3
2017-08-02T04:50:37.704Z,1011.5
2017-08-02T04:51:39.107Z,1011.6
2017-08-02T04:52:40.590Z,1011.6
2017-08-02T04:53:41.991Z,1011.8
2017-08-02T04:54:43.478Z,1011.8
2017-08-02T04:55:44.883Z,1011.9
2017-08-02T04:56:46.364Z,1012.0
2017-08-02T04:57:47.800Z,1012.1
2017-08-02T04:58:49.227Z,1012.2
2017-08-02T04:59:50.649Z,1012.3
2017-08-02T05:00:52.110Z,1012.3
2017-08-02T05:01:53.517Z,1012.4
2017-08-02T05:02:54.989Z,1012.5
2017-08-02T05:03:56.396Z,1012.6
2017-08-02T05:04:57.803Z,1012.6
2017-08-02T05:05:59.313Z,1012.7
2017-08-02T05:07:00.716Z,1012.7
2017-08-02T05:08:02.148Z,1012.7
2017-08-02T05:09:03.637Z,1012.8
2017-08-02T05:10:05.041Z,1012.8
2017-08-02T05:11:06.448Z,1012.9
2017-08-02T05:12:07.955Z,1012.9
2017-08-02T05:13:09.359Z,1013.0
2017-08-02T05:14:10.767Z,1013.0
2017-08-02T05:15:12.278Z,1013.1
2017-08-02T05:16:13.687Z,1013.1
2017-08-02T05:17:15.157Z,1013.3
2017-08-02T05:18:16.568Z,1013.3
2017-08-02T05:19:18.039Z,1013.4
2017-08-02T05:20:19.448Z,1013.5
2017-08-02T05:21:20.923Z,1013.6
2017-08-02T05:22:22.334Z,1013.6
2017-08-02T05:23:23.802Z,1013.8
2017-08-02T05:24:25.210Z,1013.8
2017-08-02T05:25:26.683Z,1013.9
2017-08-02T05:26:28.155Z,1013.9
2017-08-02T05:27:29.768Z,1014.0
2017-08-02T05:28:31.177Z,1014.1
2017-08-02T05:29:32.663Z,1014.2
2017-08-02T05:30:34.085Z,1014.3
2017-08-02T05:31:35.530Z,1014.4
2017-08-02T05:32:36.947Z,1014.5
2017-08-02T05:33:38.411Z,1014.5
2017-08-02T05:34:39.816Z,1014.5
2017-08-02T05:35:41.292Z,1014.6
2017-08-02T05:36:42.701Z,1014.6
2017-08-02T05:37:44.173Z,1014.6
2017-08-02T05:38:45.578Z,1014.7
2017-08-02T05:39:46.987Z,1014.7
2017-08-02T05:40:48.504Z,1014.7
2017-08-02T05:41:49.920Z,1014.7
2017-08-02T05:42:51.327Z,1014.7
2017-08-02T05:43:52.818Z,1014.7
2017-08-02T05:44:54.224Z,1014.8
2017-08-02T05:45:55.629Z,1014.8
2017-08-02T05:46:57.143Z,1014.9
2017-08-02T05:47:58.564Z,1014.9
2017-08-02T05:49:00.020Z,1014.9
2017-08-02T05:50:01.442Z,1015.0
2017-08-02T05:51:02.902Z,1014.9
2017-08-02T05:52:04.309Z,1015.0
2017-08-02T05:53:05.783Z,1015.0
2017-08-02T05:54:07.211Z,1015.0
2017-08-02T05:55:08.664Z,1015.0
2017-08-02T05:56:10.076Z,1014.9
2017-08-02T05:57:11.600Z,1014.9
2017-08-02T05:58:13.008Z,1014.9
2017-08-02T05:59:14.682Z,1014.9
2017-08-02T06:00:16.089Z,1014.8
2017-08-02T06:01:17.562Z,1014.8
2017-08-02T06:02:18.972Z,1014.8
2017-08-02T06:03:20.599Z,1014.7
2017-08-02T06:04:22.005Z,1014.7
2017-08-02T06:05:23.416Z,1014.7
2017-08-02T06:06:24.968Z,1014.7
2017-08-02T06:07:26.378Z,1014.7
2017-08-02T06:08:27.790Z,1014.7
2017-08-02T06:09:29.287Z,1014.7
2017-08-02T06:10:30.695Z,1014.7
2017-08-02T06:11:32.101Z,1014.6
2017-08-02T06:12:33.609Z,1014.6
2017-08-02T06:13:35.017Z,1014.6
2017-08-02T06:14:36.424Z,1014.6
2017-08-02T06:15:37.929Z,1014.6
2017-08-02T06:16:39.343Z,1014.6
2017-08-02T06:17:40.809Z,1014.5
2017-08-02T06:18:42.232Z,1014.5
2017-08-02T06:19:43.895Z,1014.5
2017-08-02T06:20:45.302Z,1014.4
2017-08-02T06:21:46.712Z,1014.4
2017-08-02T06:22:48.216Z,1014.5
2017-08-02T06:23:49.673Z,1014.4
2017-08-02T06:24:51.086Z,1014.4
2017-08-02T06:25:52.741Z,1014.4
2017-08-02T06:26:54.150Z,1014.3
2017-08-02T06:27:55.623Z,1014.3
2017-08-02T06:28:57.032Z,1014.3
2017-08-02T06:29:58.504Z,1014.2
2017-08-02T06:30:59.911Z,1014.2
2017-08-02T06:32:01.318Z,1014.2
2017-08-02T06:33:02.827Z,1014.2
2017-08-02T06:34:04.235Z,1014.1
2017-08-02T06:35:05.642Z,1014.1
2017-08-02T06:36:07.146Z,1014.0
2017-08-02T06:37:08.556Z,1014.0
2017-08-02T06:38:10.023Z,1014.0
2017-08-02T06:39:11.432Z,1014.0
2017-08-02T06:40:12.841Z,1014.0
2017-08-02T06:41:14.347Z,1014.0
2017-08-02T06:42:15.756Z,1014.0
2017-08-02T06:43:17.162Z,1014.1
2017-08-02T06:44:18.668Z,1014.1
2017-08-02T06:45:20.077Z,1014.2
2017-08-02T06:46:21.489Z,1014.2
2017-08-02T06:47:22.989Z,1014.3
2017-08-02T06:48:24.396Z,1014.4
2017-08-02T06:49:25.810Z,1014.6
2017-08-02T06:50:27.311Z,1014.7
2017-08-02T06:51:28.722Z,1014.8
2017-08-02T06:52:30.130Z,1014.8
2017-08-02T06:53:31.633Z,1014.8
2017-08-02T06:54:33.041Z,1015.0
2017-08-02T06:55:34.446Z,1015.2
2017-08-02T06:56:35.956Z,1015.3
2017-08-02T06:57:37.362Z,1015.5
2017-08-02T06:58:38.948Z,1015.7
2017-08-02T06:59:40.371Z,1015.8
2017-08-02T07:00:41.921Z,1015.9
2017-08-02T07:01:43.325Z,1016.0
2017-08-02T07:02:44.734Z,1016.1
2017-08-02T07:03:46.241Z,1016.1
2017-08-02T07:04:47.653Z,1016.3
2017-08-02T07:05:49.079Z,1016.6
2017-08-02T07:06:50.563Z,1016.8
2017-08-02T07:07:51.970Z,1016.9
2017-08-02T07:08:53.378Z,1017.5
2017-08-02T07:09:54.885Z,1018.2
2017-08-02T07:10:56.296Z,1019.0
2017-08-02T07:11:57.707Z,1019.7
2017-08-02T07:12:59.203Z,1020.4
2017-08-02T07:14:00.614Z,1021.1
2017-08-02T07:15:02.085Z,1021.4
2017-08-02T07:16:03.492Z,1021.8
2017-08-02T07:17:04.898Z,1021.9
2017-08-02T07:18:06.405Z,1022.0
2017-08-02T07:19:07.810Z,1022.1
2017-08-02T07:20:09.219Z,1022.0
2017-08-02T07:21:10.727Z,1022.3
2017-08-02T07:22:12.141Z,1022.5
2017-08-02T07:23:13.608Z,1023.0
2017-08-02T07:24:15.034Z,1023.2
2017-08-02T07:25:16.492Z,1023.9
2017-08-02T07:26:17.965Z,1024.6
2017-08-02T07:27:19.372Z,1024.9
2017-08-02T07:28:21.013Z,1025.1
2017-08-02T07:29:22.420Z,1025.5
2017-08-02T07:30:23.823Z,1026.0
2017-08-02T07:31:25.335Z,1026.7
2017-08-02T07:32:26.742Z,1027.3
2017-08-02T07:33:28.152Z,1027.9
2017-08-02T07:34:29.669Z,1028.5
2017-08-02T07:35:31.077Z,1028.9
2017-08-02T07:36:32.480Z,1028.9
2017-08-02T07:37:33.975Z,1028.8
2017-08-02T07:38:35.381Z,1028.6
2017-08-02T07:39:36.858Z,1028.7
2017-08-02T07:40:38.261Z,1028.7
2017-08-02T07:41:39.674Z,1028.7
2017-08-02T07:42:41.176Z,1029.0
2017-08-02T07:43:42.581Z,1029.6
2017-08-02T07:44:43.994Z,1030.3
2017-08-02T07:45:45.498Z,1030.8
2017-08-02T07:46:46.909Z,1031.1
2017-08-02T07:47:48.378Z,1031.5
2017-08-02T07:48:49.791Z,1031.7
2017-08-02T07:49:51.264Z,1031.7
2017-08-02T07:50:52.668Z,1031.7
2017-08-02T07:51:54.141Z,1031.8
2017-08-02T07:52:55.553Z,1031.8
2017-08-02T07:53:57.036Z,1031.7
2017-08-02T07:54:58.442Z,1031.6
2017-08-02T07:55:59.852Z,1031.4
2017-08-02T07:57:01.342Z,1031.2
2017-08-02T07:58:02.748Z,1031.1
2017-08-02T07:59:04.156Z,1031.2
2017-08-02T08:00:05.662Z,1031.5
2017-08-02T08:01:07.121Z,1031.7
2017-08-02T08:02:08.537Z,1031.8
2017-08-02T08:03:09.983Z,1032.1
2017-08-02T08:04:11.394Z,1032.2
2017-08-02T08:05:12.865Z,1032.3
2017-08-02T08:06:14.273Z,1032.2
2017-08-02T08:07:15.744Z,1032.2
2017-08-02T08:08:17.155Z,1032.3
2017-08-02T08:09:18.625Z,1032.5
2017-08-02T08:10:20.038Z,1032.7
2017-08-02T08:11:21.506Z,1032.9
2017-08-02T08:12:22.919Z,1033.0
2017-08-02T08:13:24.386Z,1032.8
2017-08-02T08:14:25.796Z,1032.7
2017-08-02T08:15:27.668Z,1032.8
2017-08-02T08:16:29.077Z,1033.1
2017-08-02T08:17:30.557Z,1033.2
2017-08-02T08:18:31.967Z,1033.3
2017-08-02T08:19:33.441Z,1033.6
2017-08-02T08:20:34.844Z,1033.6
2017-08-02T08:21:36.317Z,1033.5
2017-08-02T08:22:37.734Z,1034.1
2017-08-02T08:23:39.198Z,1034.8
2017-08-02T08:24:40.611Z,1034.8
2017-08-02T08:25:42.084Z,1035.1
2017-08-02T08:26:43.491Z,1035.2
2017-08-02T08:27:44.897Z,1035.4
2017-08-02T08:28:46.398Z,1035.4
2017-08-02T08:29:47.810Z,1035.5
2017-08-02T08:30:49.267Z,1035.5
2017-08-02T08:31:50.723Z,1035.6
2017-08-02T08:32:52.135Z,1035.4
2017-08-02T08:33:53.605Z,1035.1
2017-08-02T08:34:55.015Z,1034.7
2017-08-02T08:35:56.484Z,1034.2
2017-08-02T08:36:57.893Z,1034.3
2017-08-02T08:37:59.305Z,1034.4
2017-08-02T08:39:00.795Z,1034.6
2017-08-02T08:40:02.203Z,1034.7
2017-08-02T08:41:03.610Z,1034.7
2017-08-02T08:42:05.115Z,1034.7
2017-08-02T08:43:06.530Z,1034.8
2017-08-02T08:44:07.939Z,1034.9
2017-08-02T08:45:09.436Z,1034.9
2017-08-02T08:46:10.849Z,1034.8
2017-08-02T08:47:12.260Z,1034.8
2017-08-02T08:48:13.758Z,1035.0
2017-08-02T08:49:15.170Z,1035.2
2017-08-02T08:50:16.581Z,1035.4
2017-08-02T08:51:18.085Z,1035.7
2017-08-02T08:52:19.506Z,1036.2
2017-08-02T08:53:20.929Z,1036.3
2017-08-02T08:54:22.402Z,1036.1
2017-08-02T08:55:23.815Z,1036.0
2017-08-02T08:56:25.282Z,1036.0
2017-08-02T08:57:26.690Z,1036.6
2017-08-02T08:58:28.164Z,1036.1
2017-08-02T08:59:29.574Z,1035.9
2017-08-02T09:00:31.046Z,1036.4
2017-08-02T09:01:32.466Z,1037.2
2017-08-02T09:02:33.924Z,1038.1
2017-08-02T09:03:35.337Z,1038.2
2017-08-02T09:04:36.809Z,1038.6
2017-08-02T09:05:38.227Z,1039.2
2017-08-02T09:06:39.693Z,1039.0
2017-08-02T09:07:41.109Z,1039.9
2017-08-02T09:08:42.571Z,1040.6
2017-08-02T09:09:43.988Z,1040.6
2017-08-02T09:10:45.452Z,1041.6
2017-08-02T09:11:46.861Z,1040.7
2017-08-02T09:12:48.274Z,1040.0
2017-08-02T09:13:49.775Z,1040.3
2017-08-02T09:14:51.212Z,1040.1
2017-08-02T09:15:52.624Z,1040.6
2017-08-02T09:16:55.126Z,1042.9
2017-08-02T09:17:56.536Z,1041.6
2017-08-02T09:18:58.017Z,1042.2
2017-08-02T09:19:59.429Z,1043.4
2017-08-02T09:21:00.880Z,1044.5
2017-08-02T09:22:02.295Z,1046.1
2017-08-02T09:23:03.721Z,1049.4
2017-08-02T09:24:05.223Z,1048.4
2017-08-02T09:25:06.661Z,1053.9
2017-08-02T09:26:08.076Z,1054.0
2017-08-02T09:27:09.524Z,1059.8
2017-08-02T09:28:10.938Z,1063.2
2017-08-02T09:29:12.381Z,1067.6
2017-08-02T09:30:13.851Z,1061.4
2017-08-02T09:31:15.280Z,1066.2
2017-08-02T09:32:16.695Z,1070.8
2017-08-02T09:33:18.174Z,1069.1
2017-08-02T09:34:19.589Z,1072.1
2017-08-02T09:35:21.060Z,1077.6
2017-08-02T09:36:22.489Z,1079.2
2017-08-02T09:37:23.907Z,1070.0
2017-08-02T09:38:25.372Z,1086.3
2017-08-02T09:39:26.789Z,1087.3
2017-08-02T09:40:28.200Z,1087.0
2017-08-02T09:41:29.702Z,1085.8
2017-08-02T09:42:31.112Z,1085.3
2017-08-02T09:43:32.530Z,1082.2
2017-08-02T09:44:34.019Z,1079.0
2017-08-02T09:45:35.444Z,1079.8
2017-08-02T09:46:36.899Z,1081.6
2017-08-02T09:47:38.324Z,1083.0
2017-08-02T09:48:39.778Z,1084.9
2017-08-02T09:49:41.213Z,1086.0
2017-08-02T09:50:42.672Z,1087.7
2017-08-02T09:51:44.102Z,1087.6
2017-08-02T09:52:45.644Z,1089.5
2017-08-02T09:53:47.072Z,1090.6
2017-08-02T09:54:48.725Z,1090.4
2017-08-02T09:55:50.201Z,1090.5
2017-08-02T09:56:51.813Z,1092.3
2017-08-02T09:57:53.254Z,1091.3
2017-08-02T09:58:54.687Z,1090.5
2017-08-02T09:59:56.340Z,1088.6
2017-08-02T10:00:57.784Z,1086.2
2017-08-02T10:01:59.199Z,1083.4
2017-08-02T10:03:00.864Z,1081.9
2017-08-02T10:04:02.285Z,1079.0
2017-08-02T10:05:03.713Z,1076.1
2017-08-02T10:06:05.385Z,1073.8
2017-08-02T10:07:06.805Z,1071.7
2017-08-02T10:08:08.246Z,1069.3
2017-08-02T10:09:10.116Z,1067.8
2017-08-02T10:10:11.539Z,1065.8
2017-08-02T10:11:12.956Z,1065.1
2017-08-02T10:12:14.637Z,1062.7
2017-08-02T10:13:16.058Z,1061.9
2017-08-02T10:14:17.477Z,1060.8
2017-08-02T10:15:19.195Z,1061.9
2017-08-02T10:16:20.607Z,1058.6
2017-08-02T10:17:22.034Z,1062.7
2017-08-02T10:18:23.704Z,1059.5
2017-08-02T10:19:25.122Z,1056.3
2017-08-02T10:20:26.540Z,1054.8
2017-08-02T10:21:29.530Z,1052.9
2017-08-02T10:22:31.765Z,1051.7
2017-08-02T10:23:33.767Z,1050.3
2017-08-02T10:24:35.314Z,1054.2
2017-08-02T10:25:36.732Z,1061.6
2017-08-02T10:26:38.152Z,1069.9
2017-08-02T10:27:39.638Z,1069.8
2017-08-02T10:28:41.053Z,1068.4
2017-08-02T10:29:42.469Z,1066.4
2017-08-02T10:30:43.962Z,1065.3
2017-08-02T10:31:45.377Z,1063.5
2017-08-02T10:32:46.796Z,1065.2
2017-08-02T10:33:48.281Z,1065.4
2017-08-02T10:34:49.701Z,1070.5
2017-08-02T10:35:51.121Z,1066.5
2017-08-02T10:36:52.602Z,1070.2
2017-08-02T10:37:54.016Z,1074.3
2017-08-02T10:38:55.437Z,1070.2
2017-08-02T10:39:56.922Z,1069.0
2017-08-02T10:40:58.349Z,1074.2
2017-08-02T10:41:59.763Z,1065.7
2017-08-02T10:43:01.243Z,1063.8
2017-08-02T10:44:02.663Z,1065.3
2017-08-02T10:45:04.083Z,1064.2
2017-08-02T10:46:05.501Z,1062.3
2017-08-02T10:47:07.006Z,1060.7
2017-08-02T10:48:08.443Z,1058.1
2017-08-02T10:49:09.885Z,1057.0
2017-08-02T10:50:11.299Z,1055.8
2017-08-02T10:51:12.768Z,1055.7
2017-08-02T10:52:14.188Z,1056.5
2017-08-02T10:53:15.649Z,1056.5
2017-08-02T10:54:17.063Z,1055.5
2017-08-02T10:55:18.487Z,1054.2
2017-08-02T10:56:19.976Z,1053.0
2017-08-02T10:57:21.438Z,1052.1
2017-08-02T10:58:22.852Z,1050.9
2017-08-02T10:59:24.385Z,1049.3
2017-08-02T11:00:25.803Z,1048.0
2017-08-02T11:01:27.216Z,1047.1
2017-08-02T11:02:29.013Z,1046.8
2017-08-02T11:03:30.441Z,1046.1
2017-08-02T11:04:31.860Z,1044.7
2017-08-02T11:05:33.428Z,1044.3
2017-08-02T11:06:34.842Z,1043.9
2017-08-02T11:07:36.513Z,1044.0
2017-08-02T11:08:37.929Z,1043.1
2017-08-02T11:09:39.601Z,1042.5
2017-08-02T11:10:41.026Z,1043.1
2017-08-02T11:11:42.684Z,1043.4
2017-08-02T11:12:44.100Z,1044.8
2017-08-02T11:13:45.518Z,1044.1
2017-08-02T11:14:47.209Z,1042.0
2017-08-02T11:15:48.626Z,1040.1
2017-08-02T11:16:50.049Z,1038.3
2017-08-02T11:17:51.736Z,1036.6
2017-08-02T11:18:53.147Z,1035.4
2017-08-02T11:19:54.563Z,1035.0
2017-08-02T11:20:56.272Z,1038.3
2017-08-02T11:21:57.690Z,1044.0
2017-08-02T11:22:59.107Z,1044.8
2017-08-02T11:24:00.784Z,1042.3
2017-08-02T11:25:02.208Z,1046.2
2017-08-02T11:26:03.624Z,1054.1
2017-08-02T11:27:05.315Z,1060.3
2017-08-02T11:28:06.731Z,1066.0
2017-08-02T11:29:08.150Z,1074.6
2017-08-02T11:30:09.840Z,1082.3
2017-08-02T11:31:11.291Z,1087.5
2017-08-02T11:32:12.715Z,1088.3
2017-08-02T11:33:14.156Z,1089.9
2017-08-02T11:34:15.589Z,1086.7
2017-08-02T11:35:17.005Z,1082.0
2017-08-02T11:36:18.424Z,1078.3
2017-08-02T11:37:19.839Z,1073.9
2017-08-02T11:38:21.280Z,1069.4
2017-08-02T11:39:22.698Z,1065.1
2017-08-02T11:40:24.113Z,1061.1
2017-08-02T11:41:25.685Z,1057.6
2017-08-02T11:42:27.094Z,1054.5
2017-08-02T11:43:28.778Z,1051.5
2017-08-02T11:44:30.183Z,1048.6
2017-08-02T11:45:31.852Z,1045.9
2017-08-02T11:46:33.268Z,1043.4
2017-08-02T11:47:34.938Z,1041.1
2017-08-02T11:48:36.350Z,1039.0
2017-08-02T11:49:37.818Z,1037.1
2017-08-02T11:50:39.464Z,1035.3
2017-08-02T11:51:40.877Z,1033.6
2017-08-02T11:52:42.308Z,1032.3
2017-08-02T11:53:43.988Z,1030.6
2017-08-02T11:54:45.400Z,1028.9
2017-08-02T11:55:47.073Z,1027.4
2017-08-02T11:56:48.499Z,1025.9
2017-08-02T11:57:50.157Z,1024.5
2017-08-02T11:58:51.577Z,1023.2
2017-08-02T11:59:53.271Z,1022.1
2017-08-02T12:00:54.681Z,1021.2
2017-08-02T12:01:56.330Z,1020.2
2017-08-02T12:02:57.745Z,1019.1
2017-08-02T12:03:59.432Z,1018.2
2017-08-02T12:05:00.846Z,1017.8
2017-08-02T12:06:02.266Z,1017.3
2017-08-02T12:07:03.735Z,1016.6
2017-08-02T12:08:05.149Z,1015.7
2017-08-02T12:09:06.562Z,1014.9
2017-08-02T12:10:08.057Z,1014.4
2017-08-02T12:11:09.468Z,1013.9
2017-08-02T12:12:11.145Z,1013.3
2017-08-02T12:13:12.571Z,1012.4
2017-08-02T12:14:14.223Z,1011.6
2017-08-02T12:15:15.643Z,1010.8
2017-08-02T12:16:17.313Z,1010.2
2017-08-02T12:17:18.727Z,1009.6
2017-08-02T12:18:20.410Z,1008.9
2017-08-02T12:19:21.842Z,1008.4
2017-08-02T12:20:23.255Z,1007.9
2017-08-02T12:21:24.925Z,1007.4
2017-08-02T12:22:26.336Z,1006.9
2017-08-02T12:23:27.750Z,1006.6
2017-08-02T12:24:29.254Z,1006.3
2017-08-02T12:25:30.665Z,1005.9
2017-08-02T12:26:32.177Z,1005.6
2017-08-02T12:27:33.594Z,1005.4
2017-08-02T12:28:35.109Z,1005.3
2017-08-02T12:29:36.524Z,1005.3
2017-08-02T12:30:37.990Z,1005.4
2017-08-02T12:31:39.400Z,1006.0
2017-08-02T12:32:40.869Z,1007.0
2017-08-02T12:33:42.282Z,1007.3
2017-08-02T12:34:43.750Z,1007.3
2017-08-02T12:35:45.161Z,1007.5
2017-08-02T12:36:46.631Z,1007.8
2017-08-02T12:37:48.042Z,1008.2
2017-08-02T12:38:49.532Z,1008.8
2017-08-02T12:39:50.947Z,1011.6
2017-08-02T12:40:52.394Z,1012.1
2017-08-02T12:41:53.805Z,1014.0
2017-08-02T12:42:55.279Z,1015.9
2017-08-02T12:43:56.692Z,1019.1
2017-08-02T12:44:58.099Z,1022.3
2017-08-02T12:45:59.597Z,1022.0
2017-08-02T12:47:01.018Z,1021.8